Latest Weather Observations for Braidwood

IDN60901

Issued at 8:31 am EST Monday 26 September 2016 (issued every 10 minutes, with the page automatically refreshed every 10 minutes)

About weather observations | Map of Canberra area stations | Latest observations for Canberra area | Other Formats
Station Details ID: 069132 Name: BRAIDWOOD RACECOURSE AWS Lat: -35.43 Lon: 149.78 Height: 665.2 m
Data from the previous 72 hours. | See also: Recent months at Braidwood
Date/Time
EST
Temp
°C
App
Temp
°C
Dew
Point
°C
Rel
Hum
%
Delta-T
°C
Wind Press
QNH
hPa
Press
MSL
hPa
Rain since
9am
mm
Dir  Spd
km/h
Gust
km/h
Spd
kts
Gust
kts
26/08:30am 8.0 6.5 2.9 70 2.2 CALM 0 0 0 0 1012.9 1012.7 1.0
26/08:00am 7.8 6.5 4.0 77 1.7 CALM 0 0 0 0 1012.8 1012.6 1.0
26/07:30am 6.7 5.3 3.5 80 1.4 CALM 0 0 0 0 1013.1 1012.9 1.0
26/07:00am 5.5 4.1 3.3 86 1.0 CALM 0 0 0 0 1012.8 1012.6 1.0
26/06:30am 3.8 2.3 2.9 94 0.4 CALM 0 0 0 0 1012.6 1012.4 1.0
26/06:00am 3.5 1.9 2.5 93 0.4 CALM 0 4 0 2 1012.2 1012.1 0.8
26/05:30am 4.0 2.1 2.8 92 0.5 NNW 2 4 1 2 1012.1 1012.0 0.8
26/05:00am 5.0 2.9 3.8 92 0.5 NW 4 6 2 3 1012.0 1011.9 0.8
26/04:30am 5.0 2.5 3.7 91 0.6 NW 6 9 3 5 1011.9 1011.7 0.8
26/04:00am 5.6 3.0 4.1 90 0.7 NW 7 9 4 5 1011.7 1011.5 0.8
26/03:30am 7.0 4.7 5.0 87 0.9 NW 6 9 3 5 1011.6 1011.4 0.8
26/03:00am 7.2 5.5 5.7 90 0.7 NNW 4 6 2 3 1011.6 1011.4 0.8
26/02:30am 7.1 5.4 5.7 91 0.7 NNW 4 6 2 3 1011.6 1011.4 0.8
26/02:00am 7.7 5.7 6.2 90 0.7 WNW 6 7 3 4 1011.7 1011.5 0.8
26/01:30am 8.0 6.4 6.5 90 0.7 NNW 4 7 2 4 1012.0 1011.9 0.8
26/01:00am 8.0 6.8 6.5 90 0.7 N 2 6 1 3 1011.7 1011.5 0.8
26/12:30am 8.5 7.0 7.0 90 0.7 N 4 6 2 3 1011.9 1011.7 0.8
26/12:00am 9.1 7.5 8.2 94 0.5 NNE 6 11 3 6 1011.8 1011.6 0.8
 
Date/Time
EST
Temp
°C
App
Temp
°C
Dew
Point
°C
Rel
Hum
%
Delta-T
°C
Wind Press
QNH
hPa
Press
MSL
hPa
Rain since
9am
mm
Dir  Spd
km/h
Gust
km/h
Spd
kts
Gust
kts
25/11:30pm 8.7 6.9 7.8 94 0.4 ENE 7 11 4 6 1011.7 1011.5 0.8
25/11:00pm 8.6 6.9 7.4 92 0.6 E 6 9 3 5 1011.9 1011.7 0.8
25/10:30pm 9.0 7.7 7.8 92 0.6 SE 4 6 2 3 1012.0 1011.9 0.8
25/10:00pm 9.1 7.9 8.0 93 0.5 E 4 9 2 5 1011.8 1011.6 0.8
25/09:30pm 9.4 7.4 8.6 95 0.4 ESE 9 15 5 8 1011.4 1011.2 0.8
25/09:00pm 9.5 7.8 8.4 93 0.6 E 7 13 4 7 1011.4 1011.2 0.8
25/08:30pm 9.3 7.6 8.2 93 0.6 ESE 7 9 4 5 1011.4 1011.2 0.8
25/08:00pm 9.3 7.2 8.2 93 0.6 E 9 15 5 8 1011.0 1010.8 0.8
25/07:30pm 9.6 7.2 8.5 93 0.6 ESE 11 15 6 8 1010.7 1010.6 0.8
25/07:00pm 10.5 8.3 9.3 92 0.6 E 11 17 6 9 1010.3 1010.1 0.8
25/06:30pm 10.6 9.7 9.2 91 0.7 SSE 4 9 2 5 1009.8 1009.6 0.8
25/06:00pm 10.6 8.4 9.2 91 0.7 ESE 11 13 6 7 1009.1 1008.9 0.8
25/05:30pm 11.0 9.4 8.8 86 1.1 ENE 7 11 4 6 1008.9 1008.7 0.8
25/05:00pm 11.1 8.6 8.3 83 1.4 ESE 11 17 6 9 1008.5 1008.3 0.8
25/04:30pm 12.3 9.9 8.8 79 1.8 ESE 11 17 6 9 1008.2 1008.0 0.8
25/04:00pm 12.3 9.2 9.0 80 1.7 ESE 15 20 8 11 1007.9 1007.6 0.8
25/03:30pm 12.0 8.2 9.2 83 1.5 ESE 19 24 10 13 1007.5 1007.3 0.8
25/03:00pm 11.9 7.9 8.9 82 1.6 E 20 26 11 14 1007.3 1007.1 0.8
25/02:30pm 11.5 8.5 9.2 86 1.2 E 15 20 8 11 1007.2 1007.0 0.8
25/02:00pm 12.0 8.9 8.8 81 1.7 SSE 15 22 8 12 1007.4 1007.2 0.6
25/01:30pm 12.6 8.8 7.7 72 2.5 ESE 17 20 9 11 1006.5 1006.2 0.0
25/01:00pm 13.9 10.2 6.5 61 3.7 S 15 26 8 14 1006.6 1006.3 0.0
25/12:30pm 15.9 13.7 5.5 50 5.2 WNW 6 9 3 5 1006.4 1006.1 0.0
25/12:00pm 15.7 13.8 6.7 55 4.6 SSW 6 15 3 8 1006.4 1006.1 0.0
25/11:30am 16.0 13.7 7.5 57 4.4 W 9 15 5 8 1006.5 1006.2 0.0
25/11:00am 15.1 14.2 5.9 54 4.6 CALM 0 6 0 3 1006.6 1006.3 0.0
25/10:30am 15.0 13.0 7.1 59 4.0 W 7 13 4 7 1006.8 1006.5 0.0
25/10:00am 14.7 12.8 6.8 59 4.0 W 6 11 3 6 1006.9 1006.7 0.0
25/09:30am 14.2 11.3 6.6 60 3.8 W 11 15 6 8 1006.8 1006.5 0.0
25/09:00am 13.9 11.0 6.7 62 3.6 WSW 11 17 6 9 1006.8 1006.5 0.0
25/08:30am 13.0 10.7 5.7 61 3.6 W 7 13 4 7 1006.7 1006.4 0.0
25/08:00am 12.5 10.9 6.5 67 3.0 NW 4 13 2 7 1006.6 1006.3 0.0
25/07:30am 11.2 10.0 6.5 73 2.3 NNE 2 9 1 5 1006.6 1006.3 0.0
25/07:00am 10.7 8.1 6.1 73 2.2 WNW 9 13 5 7 1006.4 1006.1 0.0
25/06:30am 10.0 7.9 6.7 80 1.6 NNW 7 11 4 6 1006.0 1005.8 0.0
25/06:00am 9.5 8.0 6.8 83 1.3 N 4 9 2 5 1006.4 1006.1 0.0
25/05:30am 9.6 7.9 6.1 79 1.7 NNW 4 7 2 4 1006.2 1005.9 0.0
25/05:00am 10.2 8.0 6.0 75 2.0 NW 7 11 4 6 1006.2 1005.9 0.0
25/04:30am 10.1 8.4 6.1 76 1.9 NNW 4 6 2 3 1006.0 1005.8 0.0
25/04:00am 10.9 8.5 5.4 69 2.6 NW 7 11 4 6 1005.9 1005.7 0.0
25/03:30am 11.1 9.0 5.8 70 2.6 NW 6 9 3 5 1006.4 1006.1 0.0
25/03:00am 11.2 8.5 5.5 68 2.7 WNW 9 13 5 7 1006.5 1006.2 0.0
25/02:30am 11.4 8.7 5.7 68 2.7 WNW 9 13 5 7 1006.4 1006.1 0.0
25/02:00am 10.2 8.3 6.9 80 1.6 NNW 6 11 3 6 1006.8 1006.5 0.0
25/01:30am 10.2 9.2 7.4 83 1.4 N 2 6 1 3 1007.2 1007.0 0.0
25/01:00am 10.6 9.7 7.7 82 1.5 N 2 4 1 2 1007.6 1007.4 0.0
25/12:30am 10.6 9.4 8.0 84 1.3 NNW 4 6 2 3 1007.9 1007.6 0.0
25/12:00am 10.1 9.0 8.4 89 0.9 NW 4 7 2 4 1007.9 1007.6 0.0
 
Date/Time
EST
Temp
°C
App
Temp
°C
Dew
Point
°C
Rel
Hum
%
Delta-T
°C
Wind Press
QNH
hPa
Press
MSL
hPa
Rain since
9am
mm
Dir  Spd
km/h
Gust
km/h
Spd
kts
Gust
kts
24/11:30pm 9.7 9.1 7.6 87 1.0 CALM 0 0 0 0 1008.1 1007.8 0.0
24/11:00pm 9.7 9.1 7.3 85 1.2 CALM 0 0 0 0 1008.1 1007.8 0.0
24/10:30pm 10.0 9.4 7.3 83 1.3 CALM 0 0 0 0 1008.5 1008.3 0.0
24/10:00pm 10.2 9.7 8.0 86 1.1 CALM 0 4 0 2 1008.8 1008.6 0.0
24/09:30pm 10.2 9.6 7.4 83 1.4 CALM 0 0 0 0 1008.4 1008.2 0.0
24/09:00pm 10.2 9.5 7.1 81 1.5 CALM 0 0 0 0 1008.8 1008.6 0.0
24/08:30pm 10.6 10.0 7.3 80 1.6 CALM 0 0 0 0 1008.7 1008.5 0.0
24/08:00pm 11.5 10.9 7.4 76 2.1 CALM 0 2 0 1 1009.0 1008.8 0.0
24/07:30pm 12.2 10.2 7.3 72 2.5 NW 7 9 4 5 1009.0 1008.8 0.0
24/07:00pm 12.6 10.4 7.9 73 2.4 WNW 9 13 5 7 1008.9 1008.7 0.0
24/06:30pm 12.1 10.4 7.4 73 2.4 NW 6 11 3 6 1008.9 1008.7 0.0
24/06:00pm 13.5 11.7 7.3 66 3.1 NW 6 7 3 4 1008.4 1008.2 0.0
24/05:30pm 15.4 12.3 7.2 58 4.2 WNW 13 20 7 11 1008.2 1008.0 0.0
24/05:00pm 16.4 12.9 7.3 55 4.7 NW 15 24 8 13 1008.1 1007.8 0.0
24/04:30pm 16.4 12.6 6.0 50 5.2 NW 15 24 8 13 1008.3 1008.1 0.0
24/04:00pm 17.9 14.2 6.4 47 5.9 NW 15 30 8 16 1008.3 1008.1 0.0
24/03:30pm 17.9 14.8 7.3 50 5.5 NW 13 22 7 12 1008.3 1008.1 0.0
24/03:00pm 18.2 15.9 7.3 49 5.7 NNW 9 19 5 10 1008.3 1008.1 0.0
24/02:30pm 17.5 15.9 8.6 56 4.7 NNW 7 15 4 8 1008.4 1008.2 0.0
24/02:00pm 17.8 15.0 7.0 49 5.6 NW 11 20 6 11 1008.8 1008.6 0.0
24/01:30pm 18.1 16.0 8.1 52 5.3 NNW 9 17 5 9 1009.4 1009.1 0.0
24/01:00pm 18.3 16.1 8.0 51 5.5 NNW 9 19 5 10 1009.7 1009.5 0.0
24/12:30pm 17.7 15.3 7.2 50 5.5 NW 9 19 5 10 1010.0 1009.8 0.0
24/12:00pm 17.4 15.2 7.7 53 5.1 NNW 9 19 5 10 1010.4 1010.2 0.0
24/11:30am 18.0 16.1 9.1 56 4.8 N 9 20 5 11 1011.0 1010.8 0.0
24/11:00am 16.8 15.3 9.0 60 4.2 N 7 13 4 7 1011.4 1011.2 0.0
24/10:30am 15.3 13.6 8.5 64 3.6 N 7 11 4 6 1011.8 1011.6 0.0
24/10:00am 14.5 12.9 8.7 68 3.0 N 7 13 4 7 1012.3 1012.2 0.0
24/09:30am 13.2 11.9 9.1 76 2.1 N 6 9 3 5 1012.8 1012.6 0.0
24/09:00am 11.5 10.5 8.9 84 1.3 NNW 4 6 2 3 1013.1 1012.9 0.2
24/08:30am 10.1 8.8 7.7 85 1.2 NNW 4 6 2 3 1013.3 1013.2 0.2
24/08:00am 8.6 7.8 6.6 87 1.0 CALM 0 0 0 0 1013.3 1013.2 0.2
24/07:30am 6.7 5.7 5.7 93 0.5 CALM 0 0 0 0 1013.4 1013.3 0.2
24/07:00am 4.7 3.4 4.3 97 0.2 CALM 0 0 0 0 1013.4 1013.3 0.2
24/06:30am 3.3 1.8 2.9 97 0.2 CALM 0 0 0 0 1013.2 1013.0 0.2
24/06:00am 1.9 0.1 1.5 97 0.2 CALM 0 0 0 0 1013.1 1012.9 0.2
24/05:30am 1.8 0.0 1.4 97 0.2 CALM 0 0 0 0 1012.7 1012.5 0.2
24/05:00am 1.9 0.1 1.3 96 0.2 CALM 0 0 0 0 1012.6 1012.4 0.2
24/04:30am 2.3 0.6 1.7 96 0.2 CALM 0 0 0 0 1012.6 1012.4 0.2
24/04:00am 2.4 0.7 1.8 96 0.2 CALM 0 0 0 0 1012.4 1012.3 0.2
24/03:30am 2.6 0.9 2.0 96 0.2 CALM 0 0 0 0 1012.7 1012.5 0.2
24/03:00am 2.9 1.3 2.3 96 0.2 CALM 0 0 0 0 1012.7 1012.5 0.2
24/02:30am 2.9 1.3 2.3 96 0.2 CALM 0 0 0 0 1012.9 1012.7 0.2
24/02:00am 3.3 1.7 2.7 96 0.3 CALM 0 0 0 0 1012.9 1012.7 0.2
24/01:30am 4.4 3.0 3.8 96 0.3 CALM 0 0 0 0 1013.1 1012.9 0.2
24/01:00am 4.1 2.7 3.5 96 0.3 CALM 0 0 0 0 1013.1 1012.9 0.2
24/12:30am 4.4 3.0 3.8 96 0.3 CALM 0 0 0 0 1013.1 1012.9 0.2
24/12:00am 4.8 2.8 4.2 96 0.3 SSE 4 4 2 2 1013.4 1013.3 0.2
 
Date/Time
EST
Temp
°C
App
Temp
°C
Dew
Point
°C
Rel
Hum
%
Delta-T
°C
Wind Press
QNH
hPa
Press
MSL
hPa
Rain since
9am
mm
Dir  Spd
km/h
Gust
km/h
Spd
kts
Gust
kts
23/11:30pm 4.6 3.3 3.9 95 0.3 CALM 0 0 0 0 1013.5 1013.4 0.2
23/11:00pm 4.8 3.5 3.9 94 0.4 CALM 0 0 0 0 1013.5 1013.4 0.2
23/10:30pm 6.0 4.9 5.3 95 0.3 CALM 0 0 0 0 1013.7 1013.6 0.2
23/10:00pm 6.0 4.9 5.1 94 0.4 CALM 0 0 0 0 1013.9 1013.8 0.2
23/09:30pm 6.5 5.5 5.6 94 0.4 CALM 0 0 0 0 1014.0 1013.9 0.2
23/09:00pm 7.9 7.2 7.1 95 0.4 CALM 0 0 0 0 1014.0 1013.9 0.2
23/08:30pm 7.2 6.3 6.1 93 0.5 CALM 0 0 0 0 1013.9 1013.8 0.2
23/08:00pm 8.3 7.6 7.1 92 0.6 CALM 0 2 0 1 1013.9 1013.8 0.2
23/07:30pm 8.9 7.9 7.2 89 0.8 SSE 2 6 1 3 1013.7 1013.6 0.2
23/07:00pm 9.8 8.0 7.9 88 0.9 SE 7 9 4 5 1013.5 1013.4 0.2
23/06:30pm 10.6 9.4 8.0 84 1.3 SE 4 7 2 4 1013.2 1013.0 0.2
23/06:00pm 11.6 9.3 7.3 75 2.1 SE 9 11 5 6 1013.1 1012.9 0.2
23/05:30pm 14.0 11.7 7.5 65 3.3 SSE 9 13 5 7 1012.9 1012.7 0.2
23/05:00pm 14.3 12.0 7.6 64 3.4 S 9 13 5 7 1012.8 1012.6 0.2
23/04:30pm 14.6 11.9 7.4 62 3.7 S 11 15 6 8 1012.4 1012.3 0.2
23/04:00pm 14.7 12.1 7.7 63 3.6 SSE 11 13 6 7 1012.3 1012.2 0.2
23/03:30pm 15.0 12.2 6.8 58 4.1 S 11 17 6 9 1012.3 1012.2 0.2
23/03:00pm 15.2 12.3 6.5 56 4.4 S 11 17 6 9 1012.4 1012.3 0.2
23/02:30pm 15.4 12.9 6.7 56 4.4 S 9 15 5 8 1012.7 1012.5 0.2
23/02:00pm 15.2 12.0 6.7 57 4.3 SSE 13 19 7 10 1012.9 1012.7 0.2
23/01:30pm 15.3 11.7 6.8 57 4.3 S 15 22 8 12 1013.0 1012.8 0.2
23/01:00pm 15.3 11.5 5.8 53 4.7 SSE 15 22 8 12 1013.2 1013.0 0.2
23/12:30pm 15.5 11.2 6.8 56 4.4 SSE 19 32 10 17 1013.2 1013.0 0.2
23/12:00pm 15.4 11.1 6.9 57 4.3 SSE 19 32 10 17 1013.4 1013.3 0.2
23/11:30am 15.3 10.4 7.1 58 4.2 SSE 22 32 12 17 1013.5 1013.4 0.2
23/11:00am 13.9 11.4 6.7 62 3.6 SSW 9 17 5 9 1013.7 1013.6 0.0
23/10:30am 14.1 10.3 7.4 64 3.4 S 17 24 9 13 1013.9 1013.8 0.0
23/10:00am 13.2 8.7 5.9 61 3.6 S 19 26 10 14 1014.2 1014.0 0.0
23/09:30am 13.4 8.9 7.0 65 3.2 S 20 26 11 14 1014.0 1013.9 0.0
23/09:00am 12.6 8.0 6.4 66 3.1 SSW 20 28 11 15 1014.0 1013.9 3.6

Latest Capital City Observations: Canberra | Sydney | Melbourne | Brisbane | Adelaide | Perth | Hobart | Darwin

Other Formats:

Comma delimited format used in spreadsheet applications
http://www.bom.gov.au/fwo/IDN60903/IDN60903.94927.axf

JavaScript Object Notation format (JSON) in row-major order
http://www.bom.gov.au/fwo/IDN60903/IDN60903.94927.json